createdAt,value
2017-12-27T00:01:35.773Z,3.40
2017-12-27T00:04:09.045Z,3.40
2017-12-27T00:06:42.427Z,3.40
2017-12-27T00:09:15.713Z,3.40
2017-12-27T00:11:49.850Z,3.40
2017-12-27T00:14:23.138Z,3.30
2017-12-27T00:16:56.582Z,3.30
2017-12-27T00:19:30.011Z,3.30
2017-12-27T00:22:03.330Z,3.30
2017-12-27T00:24:37.327Z,3.30
2017-12-27T00:30:12.437Z,3.10
2017-12-27T00:32:40.357Z,3.00
2017-12-27T00:35:08.134Z,2.90
2017-12-27T00:37:36.757Z,2.80
2017-12-27T00:40:04.373Z,2.80
2017-12-27T00:42:32.752Z,2.90
2017-12-27T00:45:00.410Z,2.80
2017-12-27T00:47:28.177Z,2.80
2017-12-27T00:49:55.845Z,2.80
2017-12-27T00:52:23.497Z,2.80
2017-12-27T00:54:51.106Z,2.70
2017-12-27T00:57:18.763Z,2.70
2017-12-27T00:59:46.380Z,2.60
2017-12-27T01:02:14.021Z,2.70
2017-12-27T01:04:41.681Z,2.80
2017-12-27T01:07:09.316Z,2.90
2017-12-27T01:09:37.074Z,2.90
2017-12-27T01:12:04.733Z,2.90
2017-12-27T01:14:32.429Z,2.80
2017-12-27T01:17:00.061Z,2.90
2017-12-27T01:19:27.750Z,2.90
2017-12-27T01:21:55.376Z,2.90
2017-12-27T01:24:23.761Z,2.80
2017-12-27T01:26:51.428Z,2.80
2017-12-27T01:29:19.038Z,2.70
2017-12-27T01:31:47.410Z,2.70
2017-12-27T01:34:15.073Z,2.60
2017-12-27T01:36:42.694Z,2.60
2017-12-27T01:39:10.322Z,2.60
2017-12-27T01:41:38.084Z,2.60
2017-12-27T01:44:06.673Z,2.70
2017-12-27T01:46:34.305Z,2.60
2017-12-27T01:49:02.729Z,2.60
2017-12-27T01:51:30.341Z,2.50
2017-12-27T01:53:58.087Z,2.70
2017-12-27T01:56:25.744Z,2.50
2017-12-27T01:58:53.374Z,2.40
2017-12-27T02:01:21.083Z,2.20
2017-12-27T02:03:48.726Z,2.10
2017-12-27T02:06:16.397Z,1.90
2017-12-27T02:08:44.776Z,1.70
2017-12-27T02:11:12.461Z,1.70
2017-12-27T02:13:40.095Z,1.60
2017-12-27T02:16:07.925Z,1.40
2017-12-27T02:18:35.566Z,1.30
2017-12-27T02:21:03.205Z,1.30
2017-12-27T02:23:31.581Z,1.10
2017-12-27T02:25:59.245Z,1.10
2017-12-27T02:28:27.028Z,1.10
2017-12-27T02:30:54.693Z,1.00
2017-12-27T02:33:23.130Z,1.00
2017-12-27T02:35:50.766Z,0.90
2017-12-27T02:38:18.381Z,1.00
2017-12-27T02:40:46.128Z,0.90
2017-12-27T02:43:13.801Z,0.90
2017-12-27T02:45:41.460Z,0.80
2017-12-27T02:48:09.075Z,0.80
2017-12-27T02:50:36.723Z,0.70
2017-12-27T02:53:04.381Z,0.70
2017-12-27T02:55:32.002Z,0.80
2017-12-27T02:57:59.668Z,0.70
2017-12-27T03:00:27.307Z,0.70
2017-12-27T03:02:54.934Z,0.60
2017-12-27T03:05:23.396Z,0.60
2017-12-27T03:07:51.768Z,0.60
2017-12-27T03:10:19.430Z,0.50
2017-12-27T03:12:47.169Z,0.60
2017-12-27T03:15:14.788Z,0.50
2017-12-27T03:17:42.483Z,0.50
2017-12-27T03:20:10.149Z,0.50
2017-12-27T03:22:37.898Z,0.70
2017-12-27T03:25:05.581Z,0.80
2017-12-27T03:27:33.982Z,1.00
2017-12-27T03:30:01.642Z,0.90
2017-12-27T03:32:29.280Z,1.10
2017-12-27T03:34:57.250Z,1.20
2017-12-27T03:37:24.915Z,1.30
2017-12-27T03:39:52.551Z,1.30
2017-12-27T03:42:20.212Z,1.30
2017-12-27T03:44:48.080Z,1.30
2017-12-27T03:47:15.736Z,1.40
2017-12-27T03:49:44.145Z,1.40
2017-12-27T03:52:11.776Z,1.40
2017-12-27T03:54:39.442Z,1.40
2017-12-27T03:57:07.069Z,1.50
2017-12-27T03:59:34.737Z,1.50
2017-12-27T04:02:02.353Z,1.60
2017-12-27T04:04:29.992Z,1.60
2017-12-27T04:06:58.417Z,1.70
2017-12-27T04:09:26.094Z,1.60
2017-12-27T04:11:53.795Z,1.70
2017-12-27T04:14:21.428Z,1.70
2017-12-27T04:16:49.046Z,1.60
2017-12-27T04:19:17.669Z,1.60
2017-12-27T04:21:45.288Z,1.50
2017-12-27T04:24:12.945Z,1.50
2017-12-27T04:26:40.581Z,1.60
2017-12-27T04:29:08.237Z,1.70
2017-12-27T04:31:35.928Z,1.80
2017-12-27T04:34:03.543Z,1.80
2017-12-27T04:36:31.229Z,1.90
2017-12-27T04:38:59.622Z,1.90
2017-12-27T04:41:27.237Z,1.90
2017-12-27T04:43:54.976Z,1.90
2017-12-27T04:46:22.582Z,1.90
2017-12-27T04:48:50.249Z,1.90
2017-12-27T04:51:18.108Z,2.00
2017-12-27T04:53:45.749Z,2.00
2017-12-27T04:56:13.453Z,2.10
2017-12-27T04:58:41.092Z,2.20
2017-12-27T05:01:08.761Z,2.20
2017-12-27T05:03:36.657Z,2.20
2017-12-27T05:06:04.277Z,2.30
2017-12-27T05:08:31.948Z,2.30
2017-12-27T05:10:59.599Z,2.30
2017-12-27T05:13:27.269Z,2.30
2017-12-27T05:15:55.676Z,2.30
2017-12-27T05:18:23.287Z,2.30
2017-12-27T05:20:50.975Z,2.40
2017-12-27T05:23:18.609Z,2.40
2017-12-27T05:25:46.269Z,2.50
2017-12-27T05:28:13.882Z,2.60
2017-12-27T05:30:41.519Z,2.80
2017-12-27T05:33:09.181Z,2.80
2017-12-27T05:35:37.041Z,2.80
2017-12-27T05:38:04.701Z,2.90
2017-12-27T05:40:32.310Z,2.90
2017-12-27T05:42:59.950Z,3.00
2017-12-27T05:45:28.379Z,3.10
2017-12-27T05:47:56.276Z,3.00
2017-12-27T05:50:24.691Z,3.20
2017-12-27T05:52:52.318Z,3.20
2017-12-27T05:55:19.940Z,3.40
2017-12-27T05:57:47.790Z,3.40
2017-12-27T06:00:15.422Z,3.50
2017-12-27T06:02:43.846Z,3.60
2017-12-27T06:05:11.462Z,3.60
2017-12-27T06:07:39.104Z,3.80
2017-12-27T06:10:06.761Z,3.80
2017-12-27T06:12:34.428Z,3.90
2017-12-27T06:15:02.089Z,3.90
2017-12-27T06:17:29.720Z,4.00
2017-12-27T06:19:57.330Z,4.00
2017-12-27T06:22:25.038Z,4.00
2017-12-27T06:24:52.661Z,4.00
2017-12-27T06:27:20.312Z,4.10
2017-12-27T06:29:48.006Z,4.10
2017-12-27T06:32:16.385Z,4.00
2017-12-27T06:34:44.063Z,3.90
2017-12-27T06:37:11.677Z,4.00
2017-12-27T06:39:39.335Z,3.90
2017-12-27T06:42:07.193Z,3.90
2017-12-27T06:44:35.631Z,3.80
2017-12-27T06:47:03.277Z,3.70
2017-12-27T06:49:30.897Z,3.60
2017-12-27T06:51:59.316Z,3.50
2017-12-27T06:54:27.123Z,3.40
2017-12-27T06:56:55.504Z,3.20
2017-12-27T06:59:23.170Z,3.20
2017-12-27T07:01:50.803Z,3.10
2017-12-27T07:04:18.471Z,3.00
2017-12-27T07:06:46.121Z,2.90
2017-12-27T07:09:13.784Z,2.90
2017-12-27T07:11:41.438Z,2.80
2017-12-27T07:14:09.061Z,2.80
2017-12-27T07:16:36.804Z,2.70
2017-12-27T07:19:04.429Z,2.70
2017-12-27T07:21:32.043Z,2.70
2017-12-27T07:23:59.725Z,2.60
2017-12-27T07:26:27.357Z,2.60
2017-12-27T07:28:55.863Z,2.50
2017-12-27T07:31:24.372Z,2.60
2017-12-27T07:33:51.976Z,2.50
2017-12-27T07:36:19.643Z,2.60
2017-12-27T07:38:47.311Z,2.60
2017-12-27T07:41:15.020Z,2.60
2017-12-27T07:43:42.643Z,2.60
2017-12-27T07:46:10.245Z,2.60
2017-12-27T07:48:37.957Z,2.60
2017-12-27T07:51:05.598Z,2.70
2017-12-27T07:53:33.261Z,2.60
2017-12-27T07:56:00.961Z,2.70
2017-12-27T07:58:28.616Z,2.80
2017-12-27T08:00:56.303Z,2.90
2017-12-27T08:03:23.949Z,2.90
2017-12-27T08:05:51.630Z,3.00
2017-12-27T08:08:20.051Z,3.10
2017-12-27T08:10:47.733Z,3.10
2017-12-27T08:13:15.389Z,3.20
2017-12-27T08:15:43.029Z,3.20
2017-12-27T08:18:10.691Z,3.30
2017-12-27T08:20:38.649Z,3.30
2017-12-27T08:23:07.185Z,3.30
2017-12-27T08:25:34.858Z,3.30
2017-12-27T08:28:03.237Z,3.40
2017-12-27T08:30:30.899Z,3.40
2017-12-27T08:32:58.610Z,3.50
2017-12-27T08:35:26.245Z,3.50
2017-12-27T08:37:53.933Z,3.60
2017-12-27T08:40:21.557Z,3.60
2017-12-27T08:42:49.972Z,3.70
2017-12-27T08:45:17.765Z,3.70
2017-12-27T08:47:45.400Z,3.80
2017-12-27T08:50:13.055Z,3.80
2017-12-27T08:52:40.694Z,3.80
2017-12-27T08:55:08.340Z,3.90
2017-12-27T08:57:36.129Z,3.90
2017-12-27T09:00:03.793Z,3.90
2017-12-27T09:02:31.465Z,4.00
2017-12-27T09:04:59.142Z,4.00
2017-12-27T09:07:27.494Z,4.00
2017-12-27T09:09:55.122Z,4.00
2017-12-27T09:12:22.753Z,3.90
2017-12-27T09:14:50.401Z,3.90
2017-12-27T09:17:18.230Z,4.00
2017-12-27T09:19:45.914Z,4.00
2017-12-27T09:22:13.538Z,4.00
2017-12-27T09:24:41.167Z,4.00
2017-12-27T09:27:08.828Z,4.00
2017-12-27T09:29:36.697Z,4.10
2017-12-27T09:32:04.358Z,4.00
2017-12-27T09:34:32.017Z,4.00
2017-12-27T09:36:59.670Z,4.00
2017-12-27T09:39:27.338Z,3.90
2017-12-27T09:41:55.027Z,3.90
2017-12-27T09:44:22.709Z,3.80
2017-12-27T09:46:51.114Z,3.80
2017-12-27T09:49:18.725Z,3.70
2017-12-27T09:51:47.225Z,3.80
2017-12-27T09:54:14.848Z,3.70
2017-12-27T09:56:43.300Z,3.80
2017-12-27T09:59:10.934Z,3.80
2017-12-27T10:01:38.570Z,3.70
2017-12-27T10:04:06.357Z,3.60
2017-12-27T10:06:34.047Z,3.60
2017-12-27T10:09:01.707Z,3.60
2017-12-27T10:11:29.341Z,3.50
2017-12-27T10:13:57.544Z,3.40
2017-12-27T10:16:25.209Z,3.30
2017-12-27T10:18:53.597Z,3.30
2017-12-27T10:21:21.273Z,3.20
2017-12-27T10:23:48.917Z,3.20
2017-12-27T10:26:16.702Z,3.20
2017-12-27T10:28:44.363Z,3.30
2017-12-27T10:31:12.813Z,3.20
2017-12-27T10:33:41.521Z,3.30
2017-12-27T10:36:09.160Z,3.30
2017-12-27T10:38:37.091Z,3.20
2017-12-27T10:41:04.757Z,3.20
2017-12-27T10:43:32.401Z,3.20
2017-12-27T10:46:00.058Z,3.10
2017-12-27T10:48:28.421Z,3.10
2017-12-27T10:50:56.339Z,3.10
2017-12-27T10:53:24.765Z,3.10
2017-12-27T10:55:52.399Z,3.00
2017-12-27T10:58:20.062Z,3.10
2017-12-27T11:00:47.899Z,3.10
2017-12-27T11:03:15.529Z,3.20
2017-12-27T11:05:43.209Z,3.20
2017-12-27T11:08:10.831Z,3.10
2017-12-27T11:10:38.491Z,3.20
2017-12-27T11:13:06.238Z,3.20
2017-12-27T11:15:33.868Z,3.20
2017-12-27T11:18:01.558Z,3.20
2017-12-27T11:20:29.210Z,3.20
2017-12-27T11:22:57.186Z,3.30
2017-12-27T11:25:25.574Z,3.30
2017-12-27T11:27:53.216Z,3.20
2017-12-27T11:30:20.914Z,3.30
2017-12-27T11:32:48.550Z,3.40
2017-12-27T11:35:16.324Z,3.50
2017-12-27T11:37:43.941Z,3.60
2017-12-27T11:40:11.594Z,3.70
2017-12-27T11:42:39.251Z,3.80
2017-12-27T11:45:07.168Z,3.90
2017-12-27T11:47:34.820Z,3.90
2017-12-27T11:50:02.425Z,4.10
2017-12-27T11:52:30.853Z,4.00
2017-12-27T11:54:58.521Z,4.00
2017-12-27T11:57:26.227Z,4.00
2017-12-27T11:59:53.942Z,4.00
2017-12-27T12:02:22.349Z,4.00
2017-12-27T12:04:49.990Z,4.00
2017-12-27T12:07:17.776Z,4.10
2017-12-27T12:09:45.408Z,4.00
2017-12-27T12:12:13.077Z,4.00
2017-12-27T12:14:40.718Z,3.90
2017-12-27T12:17:08.342Z,4.00
2017-12-27T12:19:36.234Z,3.90
2017-12-27T12:22:03.864Z,3.90
2017-12-27T12:24:32.310Z,3.80
2017-12-27T12:26:59.934Z,3.70
2017-12-27T12:29:27.732Z,3.80
2017-12-27T12:31:56.958Z,3.90
2017-12-27T12:34:24.595Z,4.00
2017-12-27T12:36:52.258Z,4.10
2017-12-27T12:39:19.889Z,4.20
2017-12-27T12:41:47.610Z,4.20
2017-12-27T12:44:16.585Z,4.10
2017-12-27T12:46:44.230Z,4.00
2017-12-27T12:49:11.880Z,4.10
2017-12-27T12:51:39.526Z,4.00
2017-12-27T12:54:08.101Z,4.00
2017-12-27T12:56:35.768Z,4.00
2017-12-27T12:59:03.388Z,4.10
2017-12-27T13:01:31.811Z,4.10
2017-12-27T13:03:59.429Z,4.10
2017-12-27T13:06:27.196Z,4.10
2017-12-27T13:08:54.865Z,4.00
2017-12-27T13:11:22.488Z,4.00
2017-12-27T13:13:50.239Z,4.10
2017-12-27T13:16:18.053Z,4.20
2017-12-27T13:18:45.684Z,4.30
2017-12-27T13:21:13.377Z,4.20
2017-12-27T13:23:41.012Z,4.00
2017-12-27T13:26:08.675Z,4.00
2017-12-27T13:28:36.328Z,4.10
2017-12-27T13:31:03.971Z,4.10
2017-12-27T13:33:31.658Z,4.00
2017-12-27T13:36:00.083Z,3.80
2017-12-27T13:38:27.813Z,3.80
2017-12-27T13:40:55.681Z,3.80
2017-12-27T13:43:23.341Z,3.80
2017-12-27T13:45:51.094Z,3.80
2017-12-27T13:48:18.753Z,3.80
2017-12-27T13:50:46.657Z,3.90
2017-12-27T13:53:14.281Z,3.80
2017-12-27T13:55:42.663Z,3.80
2017-12-27T13:58:10.336Z,3.80
2017-12-27T14:00:38.074Z,3.80
2017-12-27T14:03:05.749Z,3.80
2017-12-27T14:05:33.370Z,3.80
2017-12-27T14:08:01.030Z,3.70
2017-12-27T14:10:28.714Z,3.60
2017-12-27T14:12:56.478Z,3.70
2017-12-27T14:15:24.903Z,3.60
2017-12-27T14:17:52.541Z,3.60
2017-12-27T14:20:20.174Z,3.60
2017-12-27T14:22:48.170Z,3.60
2017-12-27T14:25:15.801Z,3.70
2017-12-27T14:27:43.509Z,3.70
2017-12-27T14:30:11.142Z,3.70
2017-12-27T14:32:38.792Z,3.70
2017-12-27T14:35:06.709Z,3.70
2017-12-27T14:37:34.339Z,3.70
2017-12-27T14:40:02.909Z,3.80
2017-12-27T14:42:30.538Z,3.70
2017-12-27T14:44:58.323Z,3.70
2017-12-27T14:47:26.029Z,3.70
2017-12-27T14:49:53.803Z,3.70
2017-12-27T14:52:21.455Z,3.70
2017-12-27T14:54:49.094Z,3.70
2017-12-27T14:57:16.745Z,3.80
2017-12-27T14:59:44.417Z,3.80
2017-12-27T15:02:12.055Z,3.80
2017-12-27T15:04:39.717Z,3.80
2017-12-27T15:07:08.116Z,3.70
2017-12-27T15:09:35.800Z,3.60
2017-12-27T15:12:03.475Z,3.60
2017-12-27T15:14:31.881Z,3.60
2017-12-27T15:16:59.561Z,3.50
2017-12-27T15:19:27.199Z,3.60
2017-12-27T15:21:54.832Z,3.60
2017-12-27T15:24:22.500Z,3.50
2017-12-27T15:26:50.937Z,3.40
2017-12-27T15:29:18.610Z,3.40
2017-12-27T15:31:46.280Z,3.50
2017-12-27T15:34:14.665Z,3.40
2017-12-27T15:36:42.405Z,3.40
2017-12-27T15:39:10.128Z,3.40
2017-12-27T15:41:37.814Z,3.40
2017-12-27T15:44:05.455Z,3.50
2017-12-27T15:46:33.089Z,3.40
2017-12-27T15:49:00.750Z,3.40
2017-12-27T15:51:28.386Z,3.50
2017-12-27T15:53:57.131Z,3.40
2017-12-27T15:56:24.770Z,3.40
2017-12-27T15:58:52.401Z,3.40
2017-12-27T16:01:20.585Z,3.50
2017-12-27T16:03:48.207Z,3.50
2017-12-27T16:06:15.867Z,3.50
2017-12-27T16:08:43.499Z,3.50
2017-12-27T16:11:11.120Z,3.50
2017-12-27T16:13:38.779Z,3.60
2017-12-27T16:16:06.653Z,3.60
2017-12-27T16:18:34.302Z,3.50
2017-12-27T16:21:01.944Z,3.60
2017-12-27T16:23:29.606Z,3.60
2017-12-27T16:25:57.282Z,3.60
2017-12-27T16:28:25.817Z,3.60
2017-12-27T16:30:53.490Z,3.60
2017-12-27T16:33:21.133Z,3.70
2017-12-27T16:35:49.544Z,3.60
2017-12-27T16:38:17.223Z,3.60
2017-12-27T16:40:44.861Z,3.60
2017-12-27T16:43:12.662Z,3.70
2017-12-27T16:45:41.087Z,3.70
2017-12-27T16:48:08.717Z,3.70
2017-12-27T16:50:36.722Z,3.80
2017-12-27T16:53:04.370Z,3.80
2017-12-27T16:55:32.125Z,3.80
2017-12-27T16:57:59.829Z,3.90
2017-12-27T17:00:27.695Z,3.90
2017-12-27T17:02:57.380Z,3.90
2017-12-27T17:05:25.002Z,3.80
2017-12-27T17:07:53.061Z,3.90
2017-12-27T17:10:20.697Z,3.90
2017-12-27T17:12:48.326Z,3.90
2017-12-27T17:15:17.943Z,3.90
2017-12-27T17:17:45.577Z,4.00
2017-12-27T17:20:13.260Z,4.00
2017-12-27T17:22:40.889Z,4.00
2017-12-27T17:25:10.157Z,4.00
2017-12-27T17:27:37.982Z,4.00
2017-12-27T17:30:06.252Z,4.00
2017-12-27T17:32:33.923Z,4.00
2017-12-27T17:35:01.550Z,4.00
2017-12-27T17:37:29.177Z,4.00
2017-12-27T17:39:57.060Z,4.00
2017-12-27T17:42:26.672Z,4.00
2017-12-27T17:44:54.330Z,4.00
2017-12-27T17:47:21.968Z,4.10
2017-12-27T17:49:49.613Z,4.00
2017-12-27T17:52:17.274Z,4.00
2017-12-27T17:54:46.733Z,4.10
2017-12-27T17:57:14.393Z,4.10
2017-12-27T17:59:43.057Z,4.20
2017-12-27T18:02:10.705Z,4.20
2017-12-27T18:04:38.364Z,4.20
2017-12-27T18:07:06.075Z,4.20
2017-12-27T18:09:34.650Z,4.30
2017-12-27T18:12:02.276Z,4.30
2017-12-27T18:14:29.938Z,4.20
2017-12-27T18:16:59.384Z,4.30
2017-12-27T18:19:27.949Z,4.30
2017-12-27T18:21:56.368Z,4.20
2017-12-27T18:24:24.009Z,4.20
2017-12-27T18:26:53.523Z,4.30
2017-12-27T18:29:21.165Z,4.40
2017-12-27T18:31:48.798Z,4.40
2017-12-27T18:34:16.680Z,4.30
2017-12-27T18:36:46.791Z,4.40
2017-12-27T18:39:14.429Z,4.40
2017-12-27T18:41:42.134Z,4.30
2017-12-27T18:44:09.778Z,4.30
2017-12-27T18:46:37.454Z,4.40
2017-12-27T18:49:07.005Z,4.40
2017-12-27T18:51:34.641Z,4.40
2017-12-27T18:54:02.322Z,4.30
2017-12-27T18:56:29.980Z,4.30
2017-12-27T18:58:58.279Z,4.40
2017-12-27T19:01:26.799Z,4.40
2017-12-27T19:03:54.421Z,4.40
2017-12-27T19:06:22.088Z,4.40
2017-12-27T19:08:49.723Z,4.40
2017-12-27T19:11:19.498Z,4.40
2017-12-27T19:13:47.218Z,4.30
2017-12-27T19:16:14.862Z,4.40
2017-12-27T19:18:42.549Z,4.40
2017-12-27T19:21:11.214Z,4.40
2017-12-27T19:23:39.634Z,4.40
2017-12-27T19:26:07.277Z,4.30
2017-12-27T19:28:34.905Z,4.30
2017-12-27T19:31:04.289Z,4.40
2017-12-27T19:33:32.349Z,4.40
2017-12-27T19:36:00.080Z,4.40
2017-12-27T19:38:27.802Z,4.40
2017-12-27T19:40:57.989Z,4.40
2017-12-27T19:43:26.636Z,4.30
2017-12-27T19:45:54.266Z,4.40
2017-12-27T19:48:21.910Z,4.40
2017-12-27T19:50:50.615Z,4.40
2017-12-27T19:53:18.928Z,4.50
2017-12-27T19:55:46.834Z,4.40
2017-12-27T19:58:14.468Z,4.40
2017-12-27T20:00:42.138Z,4.40
2017-12-27T20:03:11.128Z,4.40
2017-12-27T20:05:39.536Z,4.50
2017-12-27T20:08:07.198Z,4.40
2017-12-27T20:10:34.826Z,4.50
2017-12-27T20:13:02.485Z,4.50
2017-12-27T20:15:30.149Z,4.50
2017-12-27T20:17:57.830Z,4.60
2017-12-27T20:20:26.271Z,4.60
2017-12-27T20:22:54.416Z,4.60
2017-12-27T20:25:23.148Z,4.70
2017-12-27T20:27:50.860Z,4.60
2017-12-27T20:30:19.287Z,4.60
2017-12-27T20:32:47.178Z,4.50
2017-12-27T20:35:17.093Z,4.50
2017-12-27T20:37:46.370Z,4.50
2017-12-27T20:40:14.757Z,4.50
2017-12-27T20:42:42.521Z,4.40
2017-12-27T20:45:10.196Z,4.50
2017-12-27T20:47:40.012Z,4.50
2017-12-27T20:50:08.455Z,4.40
2017-12-27T20:52:36.234Z,4.40
2017-12-27T20:55:04.001Z,4.30
2017-12-27T20:57:34.322Z,4.40
2017-12-27T21:00:01.958Z,4.40
2017-12-27T21:02:30.378Z,4.30
2017-12-27T21:04:58.127Z,4.30
2017-12-27T21:07:27.328Z,4.30
2017-12-27T21:09:55.002Z,4.20
2017-12-27T21:12:23.419Z,4.20
2017-12-27T21:14:51.074Z,4.10
2017-12-27T21:17:18.709Z,4.30
2017-12-27T21:19:46.386Z,4.30
2017-12-27T21:22:14.036Z,4.30
2017-12-27T21:24:43.964Z,4.40
2017-12-27T21:27:11.633Z,4.30
2017-12-27T21:29:39.251Z,4.30
2017-12-27T21:32:06.913Z,4.30
2017-12-27T21:34:35.548Z,4.20
2017-12-27T21:37:03.244Z,4.30
2017-12-27T21:39:30.895Z,4.30
2017-12-27T21:41:58.542Z,4.20
2017-12-27T21:44:26.204Z,4.20
2017-12-27T21:46:53.886Z,4.20
2017-12-27T21:49:27.870Z,4.20
2017-12-27T21:51:55.580Z,4.10
2017-12-27T21:54:23.231Z,4.20
2017-12-27T21:56:50.902Z,4.10
2017-12-27T22:02:15.624Z,4.10
2017-12-27T22:04:43.247Z,4.10
2017-12-27T22:07:11.634Z,4.20
2017-12-27T22:09:39.288Z,4.20
2017-12-27T22:12:08.127Z,4.30
2017-12-27T22:14:36.700Z,4.30
2017-12-27T22:17:05.089Z,4.40
2017-12-27T22:19:32.730Z,4.30
2017-12-27T22:22:02.327Z,4.40
2017-12-27T22:24:29.968Z,4.30
2017-12-27T22:26:57.646Z,4.30
2017-12-27T22:29:25.344Z,4.30
2017-12-27T22:31:56.709Z,4.30
2017-12-27T22:34:24.373Z,4.30
2017-12-27T22:36:51.996Z,4.30
2017-12-27T22:39:19.658Z,4.40
2017-12-27T22:41:47.287Z,4.50
2017-12-27T22:44:14.915Z,4.60
2017-12-27T22:46:43.604Z,4.70
2017-12-27T22:49:11.232Z,4.70
2017-12-27T22:51:39.673Z,4.70
2017-12-27T22:54:07.307Z,4.70
2017-12-27T22:56:35.178Z,4.70
2017-12-27T22:59:02.841Z,4.70
2017-12-27T23:01:31.275Z,4.70
2017-12-27T23:03:58.929Z,4.70
2017-12-27T23:06:26.572Z,4.60
2017-12-27T23:08:54.197Z,4.60
2017-12-27T23:11:21.857Z,4.70
2017-12-27T23:13:49.484Z,4.60
2017-12-27T23:16:17.141Z,4.60
2017-12-27T23:18:44.766Z,4.60
2017-12-27T23:21:12.397Z,4.60
2017-12-27T23:23:40.050Z,4.60
2017-12-27T23:26:07.780Z,4.60
2017-12-27T23:28:36.554Z,4.60
2017-12-27T23:31:04.939Z,4.40
2017-12-27T23:33:32.561Z,4.40
2017-12-27T23:36:00.985Z,4.40
2017-12-27T23:38:28.618Z,4.40
2017-12-27T23:40:56.286Z,4.40
2017-12-27T23:43:23.913Z,4.50
2017-12-27T23:45:51.574Z,4.50
2017-12-27T23:48:19.233Z,4.40
2017-12-27T23:50:47.101Z,4.30
2017-12-27T23:53:14.773Z,4.30
2017-12-27T23:55:42.398Z,4.30
2017-12-27T23:58:10.802Z,4.20
